Time;durP1;ratioP1;P1;durP2;ratioP2;P2;SDS_P1;SDS_P2;PMS_P1;PMS_P2;Temp;Humidity;BMP_temperature;BMP_pressure;BME280_temperature;BME280_humidity;BME280_pressure;Samples;Min_cycle;Max_cycle;Signal;HPM_P1;HPM_P2
2021/09/25 00:00:21;;;;;;;3.47;2.08;;;10.50;99.90;;;;;;5053391;28;20029;-70
2021/09/25 00:02:47;;;;;;;4.95;1.90;;;10.50;99.90;;;;;;5035500;28;20037;-70
2021/09/25 00:05:13;;;;;;;5.50;2.30;;;10.50;99.90;;;;;;5054022;28;20444;-70
2021/09/25 00:07:38;;;;;;;3.40;1.95;;;10.60;99.90;;;;;;5035117;28;20059;-70
2021/09/25 00:10:05;;;;;;;4.57;1.83;;;10.60;99.90;;;;;;5049597;28;20410;-70
2021/09/25 00:12:31;;;;;;;2.67;1.80;;;10.60;99.90;;;;;;5055295;28;20024;-71
2021/09/25 00:14:57;;;;;;;6.15;1.88;;;10.60;99.90;;;;;;5073051;28;20035;-72
2021/09/25 00:17:23;;;;;;;4.68;2.00;;;10.70;99.90;;;;;;5041772;28;20125;-72
2021/09/25 00:19:49;;;;;;;2.85;1.70;;;10.70;99.90;;;;;;5073369;28;20061;-72
2021/09/25 00:22:15;;;;;;;3.42;1.77;;;10.70;99.90;;;;;;5064923;28;20035;-72
2021/09/25 00:24:40;;;;;;;5.35;2.00;;;10.70;99.90;;;;;;5035070;28;20112;-72
2021/09/25 00:27:06;;;;;;;4.68;2.30;;;10.70;99.90;;;;;;5035359;28;20079;-71
2021/09/25 00:29:32;;;;;;;2.90;1.90;;;10.70;99.90;;;;;;5052838;28;20029;-72
2021/09/25 00:31:59;;;;;;;3.80;1.63;;;10.80;99.90;;;;;;5052864;28;20114;-71
2021/09/25 00:34:24;;;;;;;5.30;1.75;;;10.70;99.90;;;;;;5043068;28;20025;-71
2021/09/25 00:36:50;;;;;;;3.80;1.90;;;10.80;99.90;;;;;;5085701;28;20030;-72
2021/09/25 00:39:16;;;;;;;5.50;1.70;;;10.80;99.90;;;;;;5056771;28;20028;-71
2021/09/25 00:41:42;;;;;;;3.72;1.83;;;10.80;99.90;;;;;;5067324;28;20064;-70
2021/09/25 00:44:07;;;;;;;3.15;1.67;;;10.80;99.90;;;;;;5056652;28;20024;-71
2021/09/25 00:46:33;;;;;;;3.15;1.50;;;10.80;99.90;;;;;;5065221;28;20516;-70
2021/09/25 00:48:59;;;;;;;4.80;2.08;;;10.80;99.90;;;;;;5043441;28;20040;-70
2021/09/25 00:51:25;;;;;;;4.72;1.70;;;10.80;99.90;;;;;;5059446;28;20509;-70
2021/09/25 00:53:51;;;;;;;3.35;1.60;;;10.80;99.90;;;;;;5057421;28;20025;-70
2021/09/25 00:56:17;;;;;;;2.90;1.48;;;10.80;99.90;;;;;;5075970;28;20025;-70
2021/09/25 00:58:43;;;;;;;2.30;1.27;;;10.80;99.90;;;;;;5076443;28;20417;-72
2021/09/25 01:01:09;;;;;;;4.10;1.70;;;10.80;99.90;;;;;;5056261;28;20117;-70
2021/09/25 01:03:35;;;;;;;3.38;1.80;;;10.80;99.90;;;;;;5058499;28;20091;-70
2021/09/25 01:06:01;;;;;;;4.05;1.67;;;10.80;99.90;;;;;;5055987;28;20048;-70
2021/09/25 01:08:27;;;;;;;4.05;1.55;;;10.80;99.90;;;;;;5056896;28;20091;-70
2021/09/25 01:10:54;;;;;;;3.63;1.60;;;10.80;99.90;;;;;;5038114;28;20136;-70
2021/09/25 01:13:21;;;;;;;3.95;1.60;;;10.80;99.90;;;;;;5067372;28;20050;-70
2021/09/25 01:15:47;;;;;;;4.93;1.58;;;10.80;99.90;;;;;;5073052;28;20039;-70
2021/09/25 01:18:14;;;;;;;5.30;2.22;;;10.80;99.90;;;;;;5044903;28;20033;-70
2021/09/25 01:20:39;;;;;;;4.63;1.92;;;10.80;99.90;;;;;;5038438;28;20052;-70
2021/09/25 01:23:05;;;;;;;3.80;1.90;;;10.80;99.90;;;;;;5038032;28;20102;-70
2021/09/25 01:25:32;;;;;;;4.88;1.90;;;10.70;99.90;;;;;;5055902;28;20382;-70
2021/09/25 01:27:59;;;;;;;4.38;1.83;;;10.70;99.90;;;;;;5055580;28;20031;-71
2021/09/25 01:30:24;;;;;;;4.13;1.83;;;10.70;99.90;;;;;;5046706;28;20123;-72
2021/09/25 01:32:51;;;;;;;3.67;1.92;;;10.60;99.90;;;;;;5075816;28;20450;-70
2021/09/25 01:35:20;;;;;;;3.42;1.80;;;10.60;99.90;;;;;;5067235;28;20021;-70
2021/09/25 01:37:47;;;;;;;3.25;1.73;;;10.60;99.90;;;;;;5055516;28;20430;-70
2021/09/25 01:40:14;;;;;;;4.47;1.50;;;10.60;99.90;;;;;;5063947;28;20039;-70
2021/09/25 01:42:40;;;;;;;3.83;1.70;;;10.50;99.90;;;;;;5057588;28;20028;-70
2021/09/25 01:45:06;;;;;;;5.57;1.73;;;10.50;99.90;;;;;;5069764;28;20119;-69
2021/09/25 01:47:32;;;;;;;5.93;1.63;;;10.50;99.90;;;;;;5055475;28;20037;-73
2021/09/25 01:50:03;;;;;;;5.38;2.00;;;10.50;99.90;;;;;;5055048;28;20037;-70
2021/09/25 01:52:29;;;;;;;3.05;1.60;;;10.50;99.90;;;;;;5055017;28;20420;-69
2021/09/25 01:54:55;;;;;;;2.53;1.55;;;10.50;99.90;;;;;;5040596;28;20055;-69
2021/09/25 01:57:21;;;;;;;3.30;1.70;;;10.50;99.90;;;;;;5075221;28;20036;-70
2021/09/25 01:59:47;;;;;;;2.53;1.50;;;10.60;99.90;;;;;;5074970;28;20032;-70
2021/09/25 02:02:13;;;;;;;5.28;1.73;;;10.60;99.90;;;;;;5075254;28;20033;-70
2021/09/25 02:04:45;;;;;;;3.97;1.75;;;10.60;99.90;;;;;;5053096;28;20146;-70
2021/09/25 02:07:11;;;;;;;4.03;1.60;;;10.60;99.90;;;;;;5054703;28;20049;-70
2021/09/25 02:09:37;;;;;;;5.45;1.70;;;10.60;99.90;;;;;;5054899;28;20468;-70
2021/09/25 02:12:03;;;;;;;3.17;1.70;;;10.60;99.90;;;;;;5055243;28;20033;-70
2021/09/25 02:14:28;;;;;;;2.75;1.63;;;10.70;99.90;;;;;;5056937;28;20040;-70
2021/09/25 02:16:54;;;;;;;2.75;1.70;;;10.70;99.90;;;;;;5057192;28;20031;-70
2021/09/25 02:19:20;;;;;;;2.70;1.50;;;10.70;99.90;;;;;;5056946;28;20028;-70
2021/09/25 02:21:46;;;;;;;4.10;1.80;;;10.70;99.90;;;;;;5074561;28;20470;-70
2021/09/25 02:24:13;;;;;;;3.42;1.60;;;10.70;99.90;;;;;;5071714;28;20031;-70
2021/09/25 02:26:39;;;;;;;3.80;2.10;;;10.80;99.90;;;;;;5054674;28;20452;-70
2021/09/25 02:29:05;;;;;;;5.07;1.90;;;10.80;99.90;;;;;;5054573;28;20048;-70
2021/09/25 02:31:30;;;;;;;3.75;1.92;;;10.80;99.90;;;;;;5054466;28;20067;-70
2021/09/25 02:33:56;;;;;;;3.25;2.00;;;10.80;99.90;;;;;;5054271;28;20108;-70
2021/09/25 02:36:22;;;;;;;3.95;1.70;;;10.80;99.90;;;;;;5055135;28;20028;-72
2021/09/25 02:38:47;;;;;;;3.30;1.70;;;10.80;99.90;;;;;;5074210;28;20497;-70
2021/09/25 02:41:13;;;;;;;3.60;1.85;;;10.80;99.90;;;;;;5055910;28;20379;-70
2021/09/25 02:43:39;;;;;;;3.92;2.20;;;10.80;99.90;;;;;;5056548;28;20482;-70
2021/09/25 02:46:04;;;;;;;7.93;2.28;;;10.90;99.90;;;;;;5061300;28;20459;-69
2021/09/25 02:48:30;;;;;;;3.20;1.77;;;10.80;99.90;;;;;;5053967;28;20025;-70
2021/09/25 02:50:56;;;;;;;6.10;1.80;;;10.90;99.90;;;;;;5054242;28;20067;-69
2021/09/25 02:53:21;;;;;;;5.90;1.90;;;10.90;99.90;;;;;;5054433;28;20094;-70
2021/09/25 02:55:47;;;;;;;2.83;1.70;;;10.80;99.90;;;;;;5037363;28;20115;-69
2021/09/25 02:58:13;;;;;;;4.25;2.00;;;10.90;99.90;;;;;;5036955;28;20493;-70
2021/09/25 03:00:38;;;;;;;2.63;1.67;;;10.80;99.90;;;;;;5054049;28;20118;-70
2021/09/25 03:03:04;;;;;;;4.55;2.40;;;10.90;99.90;;;;;;5035449;28;20387;-70
2021/09/25 03:05:30;;;;;;;2.95;1.80;;;10.90;99.90;;;;;;5054889;28;20029;-70
2021/09/25 03:07:56;;;;;;;2.80;2.20;;;10.90;99.90;;;;;;5058500;28;20029;-72
2021/09/25 03:10:22;;;;;;;3.63;2.42;;;10.90;99.90;;;;;;5074143;28;20047;-70
2021/09/25 03:12:47;;;;;;;6.45;2.83;;;10.90;99.90;;;;;;5074166;28;20021;-70
2021/09/25 03:15:13;;;;;;;5.63;3.10;;;10.90;99.90;;;;;;5048168;28;20035;-70
2021/09/25 03:17:39;;;;;;;4.00;2.28;;;11.00;99.90;;;;;;5056181;28;20024;-70
2021/09/25 03:20:06;;;;;;;6.45;2.50;;;10.90;99.90;;;;;;5073942;28;20374;-70
2021/09/25 03:22:36;;;;;;;3.17;2.40;;;10.90;99.90;;;;;;5073370;28;20067;-72
2021/09/25 03:25:07;;;;;;;4.10;2.10;;;10.90;99.90;;;;;;5054724;28;20082;-70
2021/09/25 03:27:33;;;;;;;3.53;2.10;;;10.90;99.90;;;;;;5053548;28;20032;-71
2021/09/25 03:29:59;;;;;;;5.88;2.00;;;10.90;99.90;;;;;;5053783;28;20040;-70
2021/09/25 03:32:25;;;;;;;5.55;2.20;;;10.90;99.90;;;;;;5052370;28;20387;-69
2021/09/25 03:34:50;;;;;;;4.13;1.95;;;11.00;99.90;;;;;;5052085;28;20061;-69
2021/09/25 03:37:16;;;;;;;4.93;2.60;;;10.90;99.90;;;;;;5072083;28;20028;-70
2021/09/25 03:39:42;;;;;;;3.60;1.83;;;11.00;99.90;;;;;;5072582;28;20032;-70
2021/09/25 03:42:07;;;;;;;3.30;1.88;;;11.00;99.90;;;;;;5073593;28;20103;-72
2021/09/25 03:44:33;;;;;;;3.45;1.80;;;11.00;99.90;;;;;;5073287;28;20036;-69
2021/09/25 03:46:59;;;;;;;4.78;1.90;;;11.00;99.90;;;;;;5054199;28;20459;-69
2021/09/25 03:49:25;;;;;;;3.47;2.10;;;11.00;99.90;;;;;;5053506;28;20037;-69
2021/09/25 03:51:50;;;;;;;4.47;1.73;;;11.00;99.90;;;;;;5053223;28;20032;-69
2021/09/25 03:54:16;;;;;;;4.25;2.33;;;11.00;99.90;;;;;;5053424;28;20028;-70
2021/09/25 03:56:42;;;;;;;6.32;2.30;;;11.10;99.90;;;;;;5044983;28;20032;-70
2021/09/25 03:59:07;;;;;;;5.80;2.70;;;11.10;99.90;;;;;;5055345;28;20029;-69
2021/09/25 04:01:33;;;;;;;3.92;2.13;;;11.10;99.90;;;;;;5055468;28;20112;-69
2021/09/25 04:03:59;;;;;;;3.25;1.88;;;11.10;99.90;;;;;;5055144;28;20028;-69
2021/09/25 04:06:26;;;;;;;4.53;2.15;;;11.10;99.90;;;;;;5071073;28;20440;-70
2021/09/25 04:08:52;;;;;;;3.47;1.98;;;11.20;99.90;;;;;;5038887;28;20083;-69
2021/09/25 04:11:18;;;;;;;5.82;2.08;;;11.20;99.90;;;;;;5073286;28;20421;-71
2021/09/25 04:13:44;;;;;;;4.60;2.08;;;11.20;99.90;;;;;;5055937;28;20167;-69
2021/09/25 04:16:10;;;;;;;4.22;2.10;;;11.30;99.90;;;;;;5076547;28;20032;-69
2021/09/25 04:18:35;;;;;;;4.10;1.77;;;11.30;99.90;;;;;;5057006;28;20025;-71
2021/09/25 04:21:01;;;;;;;3.20;1.77;;;11.30;99.90;;;;;;5075151;28;20477;-69
2021/09/25 04:23:27;;;;;;;3.97;1.80;;;11.30;99.90;;;;;;5075048;28;20055;-69
2021/09/25 04:25:52;;;;;;;4.25;1.60;;;11.30;99.90;;;;;;5076853;28;20085;-70
2021/09/25 04:28:18;;;;;;;3.17;1.80;;;11.40;99.90;;;;;;5062194;28;20061;-70
2021/09/25 04:30:44;;;;;;;5.82;1.70;;;11.40;99.90;;;;;;5075063;28;20033;-70
2021/09/25 04:33:11;;;;;;;5.63;2.13;;;11.40;99.90;;;;;;5068647;28;20029;-69
2021/09/25 04:35:38;;;;;;;4.72;2.00;;;11.40;99.90;;;;;;5039599;28;20033;-69
2021/09/25 04:38:04;;;;;;;3.35;1.88;;;11.40;99.90;;;;;;5057747;28;20053;-69
2021/09/25 04:40:30;;;;;;;5.20;2.00;;;11.50;99.90;;;;;;5056655;28;20060;-71
2021/09/25 04:42:57;;;;;;;7.43;2.38;;;11.50;99.90;;;;;;5056953;28;20135;-70
2021/09/25 04:45:23;;;;;;;4.00;2.03;;;11.50;99.90;;;;;;5056440;28;20036;-72
2021/09/25 04:47:50;;;;;;;3.55;2.10;;;11.50;99.90;;;;;;5062392;28;20033;-73
2021/09/25 04:50:17;;;;;;;4.05;1.95;;;11.60;99.90;;;;;;5057162;28;20075;-72
2021/09/25 04:52:43;;;;;;;4.47;2.00;;;11.60;99.90;;;;;;5056958;28;20036;-74
2021/09/25 04:55:09;;;;;;;6.15;2.10;;;11.60;99.90;;;;;;5048766;28;20025;-76
2021/09/25 04:57:35;;;;;;;4.72;2.08;;;11.60;99.90;;;;;;5076720;28;20025;-72
2021/09/25 05:00:01;;;;;;;3.72;1.90;;;11.70;99.90;;;;;;5075770;28;20025;-75
2021/09/25 05:02:26;;;;;;;4.78;2.22;;;11.80;99.90;;;;;;5040481;28;20535;-74
2021/09/25 05:04:52;;;;;;;5.13;2.30;;;11.80;99.90;;;;;;5049367;28;20090;-74
2021/09/25 05:07:18;;;;;;;3.97;2.13;;;11.90;99.90;;;;;;5057284;28;20471;-73
2021/09/25 05:09:44;;;;;;;4.60;2.10;;;11.90;99.90;;;;;;5075262;28;20047;-73
2021/09/25 05:12:10;;;;;;;3.75;2.20;;;12.00;99.90;;;;;;5070466;28;20040;-72
2021/09/25 05:14:35;;;;;;;3.33;2.22;;;12.00;99.90;;;;;;5075887;28;20021;-70
2021/09/25 05:17:03;;;;;;;5.38;2.20;;;12.10;99.90;;;;;;5071210;28;20401;-71
2021/09/25 05:19:28;;;;;;;6.18;2.17;;;12.20;99.60;;;;;;5058022;28;20033;-71
2021/09/25 05:21:54;;;;;;;3.22;1.90;;;12.30;99.30;;;;;;5058578;28;20052;-71
2021/09/25 05:24:20;;;;;;;3.13;1.67;;;12.40;99.50;;;;;;5043570;28;20082;-74
2021/09/25 05:26:47;;;;;;;2.47;1.85;;;12.70;99.80;;;;;;5056989;28;20087;-71
2021/09/25 05:29:12;;;;;;;4.57;1.80;;;13.00;99.90;;;;;;5055695;28;20047;-71
2021/09/25 05:31:38;;;;;;;4.78;2.03;;;13.40;99.90;;;;;;5037843;28;20115;-72
2021/09/25 05:34:04;;;;;;;2.70;1.70;;;13.90;97.80;;;;;;5042596;28;20386;-70
2021/09/25 05:36:30;;;;;;;4.20;1.90;;;14.00;94.80;;;;;;5057069;28;20379;-71
2021/09/25 05:38:56;;;;;;;4.32;1.80;;;14.10;94.20;;;;;;5054758;28;20060;-72
2021/09/25 05:41:21;;;;;;;4.85;1.88;;;14.20;93.80;;;;;;5073279;28;20059;-73
2021/09/25 05:43:51;;;;;;;5.82;1.98;;;14.30;93.10;;;;;;5045226;28;20079;-71
2021/09/25 05:46:17;;;;;;;4.85;2.13;;;14.50;93.00;;;;;;5056925;28;20055;-71
2021/09/25 05:48:43;;;;;;;4.15;1.80;;;14.70;92.50;;;;;;5052939;28;20082;-70
2021/09/25 05:51:11;;;;;;;5.90;1.77;;;14.80;91.10;;;;;;5061414;28;20418;-71
2021/09/25 05:53:36;;;;;;;5.25;1.60;;;14.70;90.20;;;;;;5059351;28;20021;-71
2021/09/25 05:56:03;;;;;;;3.60;1.77;;;14.60;89.50;;;;;;5074581;28;20477;-74
2021/09/25 05:58:28;;;;;;;4.47;1.83;;;14.50;89.50;;;;;;5041180;28;20183;-71
2021/09/25 06:00:54;;;;;;;3.50;1.92;;;14.40;89.60;;;;;;5044589;28;20058;-71
2021/09/25 06:03:20;;;;;;;4.30;1.70;;;14.30;89.30;;;;;;5055415;28;20463;-72
2021/09/25 06:05:46;;;;;;;4.35;1.90;;;14.30;89.60;;;;;;5037108;28;20056;-71
2021/09/25 06:08:12;;;;;;;4.47;1.88;;;14.20;89.80;;;;;;5054904;28;20040;-71
2021/09/25 06:10:38;;;;;;;3.08;1.90;;;14.20;89.70;;;;;;5053139;28;20047;-71
2021/09/25 06:13:06;;;;;;;4.32;1.83;;;14.30;90.00;;;;;;5037402;28;20464;-71
2021/09/25 06:15:32;;;;;;;5.60;1.80;;;14.40;89.90;;;;;;5054491;28;20029;-71
2021/09/25 06:17:59;;;;;;;5.85;1.70;;;14.60;89.80;;;;;;5040320;28;20119;-71
2021/09/25 06:20:25;;;;;;;5.95;2.28;;;14.80;88.20;;;;;;5055848;28;20470;-70
2021/09/25 06:22:51;;;;;;;2.30;1.55;;;14.90;87.90;;;;;;5073587;28;20036;-72
2021/09/25 06:25:17;;;;;;;3.90;1.50;;;15.10;87.40;;;;;;5063908;28;20075;-71
2021/09/25 06:27:43;;;;;;;3.42;1.23;;;15.30;86.70;;;;;;5054890;28;20483;-71
2021/09/25 06:30:10;;;;;;;4.80;1.35;;;15.50;86.00;;;;;;5036475;28;20491;-74
2021/09/25 06:32:36;;;;;;;3.78;1.58;;;15.90;86.10;;;;;;5036720;28;20037;-71
2021/09/25 06:35:06;;;;;;;2.85;1.58;;;16.30;84.10;;;;;;5056411;28;20024;-74
2021/09/25 06:37:32;;;;;;;3.53;1.48;;;17.00;84.50;;;;;;5058137;28;20025;-73
2021/09/25 06:39:58;;;;;;;4.47;1.60;;;18.10;83.10;;;;;;5055745;28;20044;-67
2021/09/25 06:42:24;;;;;;;7.05;1.80;;;19.10;79.20;;;;;;5057650;28;20028;-65
2021/09/25 06:44:49;;;;;;;4.20;1.60;;;19.90;75.00;;;;;;5070048;28;20135;-66
2021/09/25 06:47:15;;;;;;;3.25;1.48;;;20.70;73.40;;;;;;5054760;28;20033;-73
2021/09/25 06:49:41;;;;;;;3.28;1.50;;;21.40;70.70;;;;;;5064127;28;20033;-78
2021/09/25 06:52:07;;;;;;;6.30;1.83;;;21.90;67.60;;;;;;5060983;28;20143;-70
2021/09/25 06:54:34;;;;;;;3.03;1.48;;;22.30;66.60;;;;;;5053886;28;20158;-74
2021/09/25 06:57:01;;;;;;;5.75;1.52;;;22.50;63.90;;;;;;5053770;28;20025;-74
2021/09/25 06:59:28;;;;;;;4.55;1.52;;;22.20;62.40;;;;;;5064364;28;20025;-77
2021/09/25 07:01:53;;;;;;;4.10;1.70;;;21.70;62.00;;;;;;5082395;28;20133;-75
2021/09/25 07:04:19;;;;;;;4.32;1.63;;;20.90;62.50;;;;;;5092932;28;20055;-77
2021/09/25 07:06:45;;;;;;;2.72;1.80;;;20.30;63.90;;;;;;5092782;28;20056;-76
2021/09/25 07:09:11;;;;;;;4.05;2.00;;;19.70;64.60;;;;;;5076221;28;20040;-71
2021/09/25 07:11:36;;;;;;;3.28;1.95;;;19.10;65.70;;;;;;5093959;28;20024;-72
2021/09/25 07:14:03;;;;;;;4.60;1.75;;;18.60;66.70;;;;;;5094107;28;20111;-75
2021/09/25 07:16:29;;;;;;;5.93;2.13;;;18.20;67.80;;;;;;5061076;28;20055;-74
2021/09/25 07:18:55;;;;;;;3.63;2.40;;;17.80;68.80;;;;;;5086435;28;20035;-75
2021/09/25 07:21:21;;;;;;;5.70;2.60;;;17.50;69.30;;;;;;5082965;28;20108;-75
2021/09/25 07:23:46;;;;;;;5.03;2.70;;;17.20;70.20;;;;;;5084606;28;20024;-76
2021/09/25 07:26:12;;;;;;;3.20;2.35;;;17.00;70.70;;;;;;5073666;28;20056;-76
2021/09/25 07:28:38;;;;;;;5.93;3.00;;;16.70;71.60;;;;;;5058226;28;20035;-73
2021/09/25 07:31:05;;;;;;;5.70;2.80;;;16.70;72.50;;;;;;5076195;28;20120;-72
2021/09/25 07:33:31;;;;;;;3.58;2.20;;;16.70;72.70;;;;;;5075961;28;20131;-73
2021/09/25 07:35:57;;;;;;;6.35;2.40;;;16.60;72.40;;;;;;5075375;28;20515;-71
2021/09/25 07:38:23;;;;;;;5.82;2.72;;;16.70;73.20;;;;;;5050693;28;20064;-74
2021/09/25 07:40:51;;;;;;;5.70;2.42;;;16.70;73.30;;;;;;5072582;28;20367;-80
2021/09/25 07:43:16;;;;;;;4.70;2.20;;;17.00;73.40;;;;;;5054900;28;20478;-68
2021/09/25 07:45:42;;;;;;;3.70;2.60;;;17.20;72.60;;;;;;5079037;28;20064;-69
2021/09/25 07:48:08;;;;;;;4.10;2.80;;;17.20;72.10;;;;;;5060255;28;20033;-79
2021/09/25 07:50:33;;;;;;;4.97;2.55;;;17.10;72.20;;;;;;5080081;28;20482;-79
2021/09/25 07:52:59;;;;;;;3.38;2.30;;;17.10;72.30;;;;;;5091603;28;20426;-78
2021/09/25 07:55:25;;;;;;;3.40;2.42;;;17.00;72.10;;;;;;5058512;28;20028;-75
2021/09/25 07:57:52;;;;;;;3.95;1.90;;;17.00;72.50;;;;;;5074695;28;20031;-78
2021/09/25 08:00:18;;;;;;;4.30;2.10;;;17.10;73.10;;;;;;5078992;28;20073;-81
2021/09/25 08:02:44;;;;;;;3.30;1.85;;;17.40;72.20;;;;;;5085391;28;20032;-80
2021/09/25 08:05:11;;;;;;;4.97;2.05;;;17.50;70.80;;;;;;5058647;28;20031;-76
2021/09/25 08:07:37;;;;;;;3.33;1.73;;;17.40;70.20;;;;;;5058521;28;20045;-78
2021/09/25 08:10:05;;;;;;;3.70;2.10;;;17.30;70.40;;;;;;5066765;28;20115;-78
2021/09/25 08:12:32;;;;;;;3.75;2.00;;;17.20;70.60;;;;;;5096493;28;20052;-79
2021/09/25 08:14:58;;;;;;;4.50;2.00;;;17.20;71.10;;;;;;5078725;28;20070;-77
2021/09/25 08:17:26;;;;;;;2.83;1.80;;;17.20;71.10;;;;;;5069985;28;20034;-78
2021/09/25 08:19:52;;;;;;;3.05;1.73;;;17.20;70.80;;;;;;5076492;28;20048;-74
2021/09/25 08:22:18;;;;;;;3.45;2.20;;;17.20;70.90;;;;;;5058528;28;20024;-72
2021/09/25 08:24:44;;;;;;;2.60;2.25;;;17.20;70.70;;;;;;5076323;28;20462;-74
2021/09/25 08:27:10;;;;;;;5.47;2.30;;;17.20;70.70;;;;;;5056547;28;20024;-72
2021/09/25 08:29:37;;;;;;;4.95;2.42;;;17.20;70.50;;;;;;5073054;28;20474;-71
2021/09/25 08:32:03;;;;;;;3.95;2.47;;;17.10;70.70;;;;;;5051818;28;20094;-72
2021/09/25 08:34:29;;;;;;;5.32;2.63;;;17.10;70.60;;;;;;5061881;28;20115;-72
2021/09/25 08:36:55;;;;;;;5.38;2.40;;;17.00;70.60;;;;;;5042575;28;20134;-74
2021/09/25 08:39:21;;;;;;;5.60;3.00;;;16.90;70.80;;;;;;5064139;28;20120;-75
2021/09/25 08:41:49;;;;;;;4.18;2.60;;;16.90;71.10;;;;;;5057087;28;20020;-74
2021/09/25 08:44:15;;;;;;;5.57;3.20;;;17.00;71.40;;;;;;5051796;28;20032;-77
2021/09/25 08:46:41;;;;;;;4.75;2.88;;;17.20;71.30;;;;;;5046609;28;20028;-72
2021/09/25 08:49:07;;;;;;;5.45;2.80;;;17.40;71.20;;;;;;5040717;28;20040;-72
2021/09/25 08:51:35;;;;;;;3.78;2.95;;;17.70;70.80;;;;;;5046213;28;20082;-72
2021/09/25 08:54:01;;;;;;;4.93;2.65;;;17.90;70.10;;;;;;5054561;28;20021;-72
2021/09/25 08:56:29;;;;;;;4.13;3.15;;;18.20;70.40;;;;;;5036606;28;20029;-73
2021/09/25 08:58:59;;;;;;;3.70;2.63;;;18.90;70.20;;;;;;5054433;28;20032;-75
2021/09/25 09:01:28;;;;;;;5.43;3.22;;;19.40;67.80;;;;;;5055495;28;20456;-71
2021/09/25 09:03:56;;;;;;;4.97;2.95;;;19.50;65.50;;;;;;5037880;28;20047;-72
2021/09/25 09:06:23;;;;;;;6.07;3.13;;;19.20;65.30;;;;;;5037078;28;20052;-74
2021/09/25 09:08:52;;;;;;;4.18;3.00;;;18.90;65.70;;;;;;5037679;28;20096;-73
2021/09/25 09:11:20;;;;;;;4.00;3.00;;;18.70;66.10;;;;;;5055694;28;20025;-72
2021/09/25 09:13:48;;;;;;;4.53;2.97;;;18.80;66.80;;;;;;5037752;28;20132;-71
2021/09/25 09:16:15;;;;;;;5.32;2.92;;;19.00;66.40;;;;;;5055635;28;20375;-72
2021/09/25 09:18:44;;;;;;;5.97;3.20;;;19.20;65.50;;;;;;5055917;28;20033;-72
2021/09/25 09:21:29;;;;;;;4.10;2.88;;;19.40;64.80;;;;;;5037578;28;20076;-73
2021/09/25 09:24:08;;;;;;;4.55;3.03;;;19.50;64.40;;;;;;5055097;28;20044;-73
2021/09/25 09:26:39;;;;;;;3.78;2.90;;;19.40;63.90;;;;;;5037793;28;20447;-72
2021/09/25 09:29:07;;;;;;;4.20;2.90;;;19.20;63.90;;;;;;5055270;28;20467;-72
2021/09/25 09:31:34;;;;;;;5.50;3.05;;;18.90;64.00;;;;;;5055230;28;20028;-71
2021/09/25 09:34:02;;;;;;;4.80;3.30;;;18.70;63.90;;;;;;5055573;28;20100;-72
2021/09/25 09:36:37;;;;;;;4.28;2.90;;;18.50;63.80;;;;;;5055348;28;20057;-74
2021/09/25 09:39:10;;;;;;;5.18;3.08;;;18.40;64.20;;;;;;5037600;28;20033;-73
2021/09/25 09:41:46;;;;;;;4.70;3.20;;;18.40;64.60;;;;;;5054999;28;20456;-72
2021/09/25 09:44:20;;;;;;;6.10;3.35;;;18.20;64.90;;;;;;5055349;28;20025;-74
2021/09/25 09:46:50;;;;;;;4.00;2.88;;;18.00;65.10;;;;;;5037717;28;20100;-72
2021/09/25 09:49:25;;;;;;;4.47;2.60;;;18.00;65.80;;;;;;5036557;28;20399;-72
2021/09/25 09:51:56;;;;;;;5.82;2.70;;;18.10;66.50;;;;;;5037550;28;20094;-72
2021/09/25 09:54:30;;;;;;;3.83;2.85;;;18.30;66.00;;;;;;5054930;28;20025;-74
2021/09/25 09:56:58;;;;;;;3.55;2.40;;;18.40;65.50;;;;;;5055506;28;20348;-72
2021/09/25 09:59:24;;;;;;;4.30;2.75;;;18.60;64.80;;;;;;5037513;28;20059;-71
2021/09/25 10:01:50;;;;;;;4.78;2.85;;;18.70;64.40;;;;;;5037097;28;20029;-71
2021/09/25 10:04:17;;;;;;;6.18;3.10;;;18.70;64.50;;;;;;5055405;28;20067;-71
2021/09/25 10:06:44;;;;;;;6.07;2.47;;;18.50;64.70;;;;;;5036813;28;20049;-71
2021/09/25 10:09:13;;;;;;;2.50;1.90;;;18.40;64.70;;;;;;5036845;28;20041;-71
2021/09/25 10:11:41;;;;;;;3.45;1.75;;;18.30;64.90;;;;;;5054430;28;20025;-72
2021/09/25 10:14:08;;;;;;;2.30;1.73;;;18.20;64.80;;;;;;5036887;28;20052;-71
2021/09/25 10:16:34;;;;;;;3.15;1.50;;;18.20;65.00;;;;;;5037080;28;20375;-71
2021/09/25 10:19:04;;;;;;;2.53;1.58;;;18.20;65.30;;;;;;5054741;28;20025;-72
2021/09/25 10:21:35;;;;;;;2.25;1.20;;;18.20;65.60;;;;;;5054665;28;20025;-72
2021/09/25 10:24:04;;;;;;;2.42;1.10;;;18.40;65.50;;;;;;5054637;28;20102;-74
2021/09/25 10:26:30;;;;;;;5.55;1.38;;;18.50;65.20;;;;;;5036744;28;20025;-71
2021/09/25 10:29:01;;;;;;;5.03;2.03;;;18.70;65.20;;;;;;5054519;28;20044;-72
2021/09/25 10:31:27;;;;;;;3.88;1.70;;;18.80;64.70;;;;;;5036554;28;20036;-71
2021/09/25 10:34:16;;;;;;;5.20;1.50;;;18.80;64.30;;;;;;5054463;28;20033;-72
2021/09/25 10:36:53;;;;;;;2.47;1.42;;;18.80;64.50;;;;;;5054754;28;20488;-73
2021/09/25 10:39:24;;;;;;;3.10;1.63;;;18.80;64.70;;;;;;5054398;28;20032;-72
2021/09/25 10:42:09;;;;;;;4.30;1.70;;;18.80;64.70;;;;;;5054285;28;20025;-72
2021/09/25 10:44:40;;;;;;;;;;;18.70;65.00;;;;;;5054884;28;20033;-72
2021/09/25 10:47:13;;;;;;;18.23;11.80;;;18.60;65.40;;;;;;5054230;28;19908;-71
2021/09/25 10:49:48;;;;;;;5.28;2.63;;;18.40;65.10;;;;;;5053913;28;20467;-72
2021/09/25 10:52:18;;;;;;;4.50;2.25;;;18.20;65.40;;;;;;5054155;28;20029;-72
2021/09/25 10:54:45;;;;;;;3.85;1.52;;;18.10;65.90;;;;;;5053904;28;20024;-70
2021/09/25 10:57:18;;;;;;;3.67;1.70;;;18.00;66.20;;;;;;5054145;28;20029;-72
2021/09/25 11:00:21;;;;;;;5.40;1.50;;;17.90;66.30;;;;;;5054276;28;20033;-73
2021/09/25 11:02:48;;;;;;;3.03;1.80;;;17.90;66.30;;;;;;5053784;28;20052;-71
2021/09/25 11:05:38;;;;;;;4.40;1.90;;;17.90;66.20;;;;;;5053741;28;20056;-72
2021/09/25 11:08:14;;;;;;;3.08;1.33;;;18.00;66.60;;;;;;5054023;28;20045;-74
2021/09/25 11:11:11;;;;;;;4.15;1.70;;;18.30;66.00;;;;;;5036132;28;20166;-72
2021/09/25 11:14:04;;;;;;;3.58;1.50;;;18.50;65.50;;;;;;5023778;28;20052;-72
2021/09/25 11:17:09;;;;;;;4.03;1.50;;;18.80;65.00;;;;;;5035988;28;20033;-72
2021/09/25 11:19:43;;;;;;;3.25;1.50;;;19.10;64.20;;;;;;5032133;28;20037;-72
2021/09/25 11:22:18;;;;;;;5.97;1.40;;;19.30;63.80;;;;;;5053471;28;20021;-71
2021/09/25 11:24:59;;;;;;;5.53;2.75;;;19.30;63.20;;;;;;5035067;28;20159;-73
2021/09/25 11:27:36;;;;;;;4.72;1.80;;;19.40;62.90;;;;;;5036115;28;20544;-70
2021/09/25 11:30:15;;;;;;;4.50;2.33;;;19.40;62.70;;;;;;5035806;28;20039;-73
2021/09/25 11:32:46;;;;;;;3.33;1.50;;;19.30;62.50;;;;;;5053702;28;20032;-72
2021/09/25 11:35:13;;;;;;;3.30;1.42;;;19.20;62.90;;;;;;5053545;28;20048;-72
2021/09/25 11:37:58;;;;;;;3.08;1.50;;;19.00;62.70;;;;;;5053656;28;20455;-71
2021/09/25 11:40:46;;;;;;;2.47;1.15;;;18.90;63.30;;;;;;5053404;28;20029;-71
2021/09/25 11:43:14;;;;;;;2.15;1.30;;;18.70;63.60;;;;;;5053512;28;20028;-71
2021/09/25 11:45:43;;;;;;;4.38;1.88;;;18.60;63.70;;;;;;5053470;28;20021;-72
2021/09/25 11:48:10;;;;;;;3.72;1.48;;;18.50;63.70;;;;;;5053424;28;20028;-71
2021/09/25 11:50:39;;;;;;;3.80;1.40;;;18.40;64.40;;;;;;5053182;28;20036;-71
2021/09/25 11:53:12;;;;;;;2.88;1.40;;;18.50;64.70;;;;;;5053350;28;20104;-70
2021/09/25 11:55:39;;;;;;;2.25;1.40;;;18.70;65.20;;;;;;5053428;28;20017;-71
2021/09/25 11:58:13;;;;;;;4.78;1.60;;;19.30;65.20;;;;;;5035588;28;20032;-72
2021/09/25 12:00:49;;;;;;;3.75;1.55;;;19.90;63.70;;;;;;5053379;28;20414;-71
2021/09/25 12:03:19;;;;;;;4.80;1.67;;;20.30;62.60;;;;;;5053449;28;20021;-71
2021/09/25 12:05:47;;;;;;;3.58;1.40;;;20.50;61.40;;;;;;5053108;28;20546;-71
2021/09/25 12:08:17;;;;;;;6.65;1.63;;;20.60;60.70;;;;;;5053568;28;20132;-71
2021/09/25 12:10:45;;;;;;;3.00;1.20;;;20.40;60.70;;;;;;5035614;28;20531;-71
2021/09/25 12:13:12;;;;;;;3.25;1.45;;;20.20;60.50;;;;;;5053212;28;20029;-72
2021/09/25 12:15:43;;;;;;;6.10;1.50;;;19.90;60.70;;;;;;5035206;28;20025;-71
2021/09/25 12:18:15;;;;;;;3.50;1.70;;;19.60;61.50;;;;;;5053121;28;20025;-71
2021/09/25 12:20:44;;;;;;;3.42;1.45;;;19.50;61.90;;;;;;5035875;28;20406;-74
2021/09/25 12:23:10;;;;;;;5.40;1.70;;;19.30;61.80;;;;;;5053033;28;20021;-72
2021/09/25 12:25:40;;;;;;;3.88;1.60;;;19.20;62.30;;;;;;5035103;28;20116;-71
2021/09/25 12:28:28;;;;;;;4.32;1.77;;;19.00;62.70;;;;;;5035071;28;20497;-71
2021/09/25 12:30:57;;;;;;;4.97;2.03;;;18.90;63.20;;;;;;5053022;28;20375;-71
2021/09/25 12:33:22;;;;;;;4.40;1.80;;;18.80;63.50;;;;;;5052927;28;20029;-70
2021/09/25 12:36:08;;;;;;;4.95;2.17;;;18.80;63.60;;;;;;5037499;28;20032;-71
2021/09/25 12:38:40;;;;;;;6.78;1.90;;;18.70;63.80;;;;;;5038897;28;20383;-71
2021/09/25 12:41:15;;;;;;;4.68;2.45;;;18.80;64.10;;;;;;5038895;28;20029;-71
2021/09/25 12:43:43;;;;;;;4.47;1.50;;;18.90;64.30;;;;;;5039009;28;20025;-72
2021/09/25 12:46:27;;;;;;;3.78;1.48;;;19.10;64.20;;;;;;5038738;28;20120;-71
2021/09/25 12:48:59;;;;;;;5.30;1.58;;;19.30;63.60;;;;;;5038704;28;20063;-72
2021/09/25 12:51:30;;;;;;;6.13;1.55;;;19.30;62.40;;;;;;5056244;28;20032;-72